METAR AND TAF INFORMATION
METAR FOR LERS
ADDS - METARS form results

(0751 UTC 03 February 2023)
Data provider http://aviationweather.gov/metar/data/
 
METAR text: LERS 030730Z VRB02KT CAVOK M01/M04 Q1030
Conditions at: LERS (REUS (CIV/MIL) , ES) observed 0730 UTC 03 February 2023
Temperature: -1.0°C (30°F)
Dewpoint: -4.0°C (25°F) [RH = 80%]
Pressure (altimeter): 30.41 inches Hg (1030.0 mb)
Winds: variable direction winds at 2 MPH (2 knots; 1.0 m/s)
Visibility: 6 or more miles (10+ km)
Ceiling: ceiling and visibility are OK
Clouds: unknown
Weather: no significant weather observed at this time

METAR text: LERS 030700Z VRB02KT CAVOK M01/M04 Q1030
Conditions at: LERS (REUS (CIV/MIL) , ES) observed 0700 UTC 03 February 2023
Temperature: -1.0°C (30°F)
Dewpoint: -4.0°C (25°F) [RH = 80%]
Pressure (altimeter): 30.41 inches Hg (1030.0 mb)
Winds: variable direction winds at 2 MPH (2 knots; 1.0 m/s)
Visibility: 6 or more miles (10+ km)
Ceiling: ceiling and visibility are OK
Clouds: unknown
Weather: no significant weather observed at this time

Forecast for: LERS (REUS (CIV/MIL) , ES)
Text: TAF LERS 030200Z 0303/0403 VRB04KT 9999 FEW020 TX17/0313Z TNM00/0307Z
Forecast period: 0300 UTC 03 February 2023 to 0300 UTC 04 February 2023
Forecast type: FROM: standard forecast or significant change
Winds: variable direction winds at 5 MPH (4 knots; 2.1 m/s)
Visibility: 6 or more miles (10+ km)
Ceiling: at least 12,000 feet AGL
Clouds: few clouds at 2000 feet AGL
Weather: no significant weather forecast for this period
Text: PROB30
Forecast period: 0300 to 0900 UTC 03 February 2023
Forecast type: TEMPORARY: The following changes expected for less than half the time period
Winds: from the NW (320 degrees) at 9 MPH (8 knots; 4.1 m/s)
Visibility: missing
Ceiling: unknown
Clouds: missing
Weather: no significant weather forecast for this period
Text: TEMPO 0303/0309 32008KT
Forecast period: 1200 to 1600 UTC 03 February 2023
Forecast type: TEMPORARY: The following changes expected for less than half the time period
Winds: from the SE (130 degrees) at 8 MPH (7 knots; 3.6 m/s)
Visibility: missing
Ceiling: unknown
Clouds: missing
Weather: no significant weather forecast for this period

 AIRPORT MAP

 RUNWAY INFORMATION
Runway 07 Runway length 8054 ft Runway width 148 ft
Runway elevation 231 ft Runway displaced threshold 853 ft Runway heading 69
Runway 25 Runway length 8054 ft Runway width 148 ft
Runway elevation 234 ft Runway displaced threshold 0 ft Runway heading 249
Runway 12 Runway length 3117 ft Runway width 115 ft
Runway elevation 226 ft Runway displaced threshold 0 ft Runway heading 111
Runway 30 Runway length 3117 ft Runway width 115 ft
Runway elevation 198 ft Runway displaced threshold 0 ft Runway heading 291

 AIRPORT FREQUENCIES
Type APP Name APP Frequency 118.15 MHZ
Type GND Name GND Frequency 121.7 MHZ
Type TWR Name TWR Frequency 118.15 MHZ

 AIRPORT NEAR NAVIGATION AIDS
Type VOR-DME Name Reus Frequency 114200 KHZ
Type NDB Name Reus Frequency 424 KHZ